createdAt,value
2022-10-17T00:00:18.259Z,20.10
2022-10-17T00:02:48.281Z,20.10
2022-10-17T00:05:18.212Z,20.10
2022-10-17T00:07:48.627Z,20.10
2022-10-17T00:10:18.970Z,20.20
2022-10-17T00:12:49.384Z,20.20
2022-10-17T00:15:21.555Z,20.30
2022-10-17T00:17:51.431Z,20.20
2022-10-17T00:20:21.684Z,20.30
2022-10-17T00:22:51.682Z,20.30
2022-10-17T00:25:21.648Z,20.40
2022-10-17T00:27:51.501Z,20.40
2022-10-17T00:30:21.470Z,20.40
2022-10-17T00:32:51.313Z,20.50
2022-10-17T00:35:21.311Z,20.50
2022-10-17T00:37:51.133Z,20.50
2022-10-17T00:40:21.110Z,20.60
2022-10-17T00:42:52.942Z,20.60
2022-10-17T00:45:32.292Z,20.60
2022-10-17T00:48:06.881Z,20.70
2022-10-17T00:50:38.158Z,20.70
2022-10-17T00:53:10.314Z,20.80
2022-10-17T00:55:47.228Z,20.80
2022-10-17T00:58:17.853Z,20.90
2022-10-17T01:00:50.181Z,20.90
2022-10-17T01:03:20.166Z,20.90
2022-10-17T01:05:50.070Z,21.00
2022-10-17T01:08:20.686Z,21.10
2022-10-17T01:11:16.457Z,21.10
2022-10-17T01:14:01.645Z,21.20
2022-10-17T01:17:01.434Z,21.20
2022-10-17T01:20:10.117Z,21.30
2022-10-17T01:23:07.500Z,21.30
2022-10-17T01:25:58.287Z,21.40
2022-10-17T01:29:03.198Z,21.50
2022-10-17T01:31:43.279Z,21.60
2022-10-17T01:34:33.530Z,21.70
2022-10-17T01:37:26.356Z,21.70
2022-10-17T01:40:12.371Z,21.80
2022-10-17T01:43:08.511Z,21.90
2022-10-17T01:46:07.575Z,22.10
2022-10-17T01:48:43.100Z,22.20
2022-10-17T01:51:28.694Z,22.20
2022-10-17T01:54:21.704Z,22.40
2022-10-17T01:56:57.153Z,22.40
2022-10-17T01:59:34.182Z,22.50
2022-10-17T02:02:05.101Z,22.60
2022-10-17T02:04:35.052Z,22.60
2022-10-17T02:07:15.716Z,22.70
2022-10-17T02:09:46.330Z,22.80
2022-10-17T02:12:37.133Z,22.90
2022-10-17T02:15:46.068Z,23.00
2022-10-17T02:18:48.878Z,23.10
2022-10-17T02:21:48.113Z,23.20
2022-10-17T02:24:50.418Z,23.30
2022-10-17T02:27:50.761Z,23.30
2022-10-17T02:30:50.129Z,23.40
2022-10-17T02:33:32.879Z,23.50
2022-10-17T02:36:08.593Z,23.70
2022-10-17T02:38:38.862Z,23.80
2022-10-17T02:41:12.698Z,23.80
2022-10-17T02:43:46.863Z,23.90
2022-10-17T02:46:22.798Z,24.00
2022-10-17T02:49:10.044Z,24.00
2022-10-17T02:51:47.705Z,24.10
2022-10-17T02:54:42.704Z,24.20
2022-10-17T02:57:38.731Z,24.30
2022-10-17T03:00:12.845Z,24.30
2022-10-17T03:02:46.088Z,24.40
2022-10-17T03:05:19.919Z,24.50
2022-10-17T03:07:49.891Z,24.60
2022-10-17T03:10:21.088Z,24.60
2022-10-17T03:12:50.948Z,24.70
2022-10-17T03:15:20.793Z,24.70
2022-10-17T03:17:50.914Z,24.80
2022-10-17T03:20:20.813Z,24.90
2022-10-17T03:22:50.668Z,24.90
2022-10-17T03:25:20.606Z,25.00
2022-10-17T03:27:50.600Z,25.10
2022-10-17T03:30:21.034Z,25.10
2022-10-17T03:32:50.936Z,25.20
2022-10-17T03:35:20.980Z,25.30
2022-10-17T03:37:50.792Z,25.30
2022-10-17T03:40:20.754Z,25.40
2022-10-17T03:42:50.633Z,25.40
2022-10-17T03:45:20.525Z,25.50
2022-10-17T03:47:50.389Z,25.60
2022-10-17T03:50:20.266Z,25.70
2022-10-17T03:52:51.335Z,25.70
2022-10-17T03:55:21.198Z,25.80
2022-10-17T03:57:51.055Z,25.80
2022-10-17T04:00:20.946Z,25.80
2022-10-17T04:02:50.820Z,25.90
2022-10-17T04:05:20.735Z,26.00
2022-10-17T04:07:50.860Z,26.10
2022-10-17T04:10:21.655Z,26.20
2022-10-17T04:12:51.580Z,26.20
2022-10-17T04:15:21.544Z,26.30
2022-10-17T04:17:51.798Z,26.40
2022-10-17T04:20:21.773Z,26.40
2022-10-17T04:22:51.583Z,26.40
2022-10-17T04:25:21.393Z,26.50
2022-10-17T04:27:51.253Z,26.60
2022-10-17T04:30:21.015Z,26.60
2022-10-17T04:32:50.988Z,26.70
2022-10-17T04:35:21.016Z,26.70
2022-10-17T04:37:50.896Z,26.80
2022-10-17T04:40:21.028Z,26.80
2022-10-17T04:42:50.965Z,26.80
2022-10-17T04:45:20.828Z,26.90
2022-10-17T04:47:50.709Z,26.90
2022-10-17T04:50:20.924Z,26.90
2022-10-17T04:52:50.844Z,27.00
2022-10-17T04:55:20.771Z,27.00
2022-10-17T04:57:50.583Z,27.00
2022-10-17T05:00:20.469Z,27.10
2022-10-17T05:02:50.404Z,27.10
2022-10-17T05:05:23.363Z,27.20
2022-10-17T05:07:53.206Z,27.30
2022-10-17T05:10:23.915Z,27.40
2022-10-17T05:12:53.809Z,27.40
2022-10-17T05:15:23.598Z,27.40
2022-10-17T05:17:58.153Z,27.50
2022-10-17T05:20:28.154Z,27.50
2022-10-17T05:22:58.124Z,27.50
2022-10-17T05:25:28.089Z,27.60
2022-10-17T05:27:57.868Z,27.60
2022-10-17T05:30:27.734Z,27.70
2022-10-17T05:32:58.100Z,27.70
2022-10-17T05:35:28.020Z,27.70
2022-10-17T05:37:57.910Z,27.70
2022-10-17T05:40:27.770Z,27.70
2022-10-17T05:42:57.566Z,27.70
2022-10-17T05:45:27.420Z,27.70
2022-10-17T05:47:57.367Z,27.80
2022-10-17T05:50:27.212Z,27.70
2022-10-17T05:53:00.586Z,27.80
2022-10-17T05:55:37.473Z,27.80
2022-10-17T05:58:07.317Z,27.80
2022-10-17T06:00:37.282Z,27.80
2022-10-17T06:03:07.181Z,27.90
2022-10-17T06:05:38.230Z,27.90
2022-10-17T06:08:08.169Z,27.90
2022-10-17T06:10:38.353Z,28.00
2022-10-17T06:13:08.013Z,28.00
2022-10-17T06:15:37.459Z,28.00
2022-10-17T06:18:07.334Z,28.10
2022-10-17T06:20:37.165Z,28.10
2022-10-17T06:23:07.931Z,28.10
2022-10-17T06:25:37.468Z,28.20
2022-10-17T06:28:07.210Z,28.20
2022-10-17T06:30:36.739Z,28.30
2022-10-17T06:33:07.113Z,28.30
2022-10-17T06:35:36.663Z,28.30
2022-10-17T06:38:06.628Z,28.30
2022-10-17T06:40:36.187Z,28.30
2022-10-17T06:43:05.748Z,28.40
2022-10-17T06:45:35.212Z,28.40
2022-10-17T06:48:05.009Z,28.40
2022-10-17T06:50:34.541Z,28.40
2022-10-17T06:53:04.205Z,28.40
2022-10-17T06:55:34.700Z,28.50
2022-10-17T06:58:04.288Z,28.50
2022-10-17T07:00:33.850Z,28.50
2022-10-17T07:03:03.463Z,28.60
2022-10-17T07:17:40.544Z,28.60
2022-10-17T07:20:11.086Z,28.50
2022-10-17T07:22:40.945Z,28.60
2022-10-17T07:25:11.636Z,28.60
2022-10-17T07:27:41.486Z,28.60
2022-10-17T07:30:12.074Z,28.60
2022-10-17T07:32:41.994Z,28.60
2022-10-17T07:35:12.956Z,28.60
2022-10-17T07:37:43.386Z,28.60
2022-10-17T07:40:17.807Z,28.60
2022-10-17T07:42:47.589Z,28.70
2022-10-17T07:45:17.680Z,28.70
2022-10-17T07:47:50.571Z,28.70
2022-10-17T07:50:20.442Z,28.70
2022-10-17T07:52:53.401Z,28.70
2022-10-17T07:55:23.209Z,28.70
2022-10-17T07:57:53.095Z,28.70
2022-10-17T08:00:23.059Z,28.70
2022-10-17T08:02:52.897Z,28.70
2022-10-17T08:05:25.873Z,28.80
2022-10-17T08:07:56.495Z,28.80
2022-10-17T08:10:32.717Z,28.70
2022-10-17T08:13:03.806Z,28.70
2022-10-17T08:15:33.711Z,28.80
2022-10-17T08:18:03.935Z,28.80
2022-10-17T08:20:33.422Z,28.80
2022-10-17T08:23:03.035Z,28.80
2022-10-17T08:25:32.680Z,28.80
2022-10-17T08:28:02.444Z,28.80
2022-10-17T08:30:32.329Z,28.70
2022-10-17T08:33:02.009Z,28.70
2022-10-17T08:35:32.665Z,28.80
2022-10-17T08:38:15.240Z,28.70
2022-10-17T08:40:45.564Z,28.70
2022-10-17T08:43:44.426Z,28.70
2022-10-17T08:48:51.448Z,28.70
2022-10-17T08:51:27.626Z,28.70
2022-10-17T08:54:07.170Z,28.60
2022-10-17T08:56:49.612Z,28.60
2022-10-17T08:59:29.508Z,28.60
2022-10-17T09:02:24.005Z,28.60
2022-10-17T09:05:24.028Z,28.60
2022-10-17T09:08:25.478Z,28.60
2022-10-17T09:11:37.196Z,28.60
2022-10-17T09:14:45.859Z,28.50
2022-10-17T09:17:39.491Z,28.50
2022-10-17T09:20:20.045Z,28.40
2022-10-17T09:23:04.653Z,28.40
2022-10-17T09:25:47.451Z,28.40
2022-10-17T09:28:39.790Z,28.40
2022-10-17T09:31:32.692Z,28.30
2022-10-17T09:34:05.123Z,28.30
2022-10-17T09:36:40.943Z,28.30
2022-10-17T09:39:33.626Z,28.20
2022-10-17T09:42:04.915Z,28.20
2022-10-17T09:44:37.127Z,28.20
2022-10-17T09:47:21.252Z,28.10
2022-10-17T09:49:52.054Z,28.10
2022-10-17T09:52:49.398Z,28.00
2022-10-17T09:55:50.012Z,28.00
2022-10-17T09:58:19.663Z,27.90
2022-10-17T10:00:50.696Z,27.90
2022-10-17T10:03:26.101Z,27.80
2022-10-17T10:06:19.577Z,27.80
2022-10-17T10:09:00.338Z,27.70
2022-10-17T10:11:51.513Z,27.70
2022-10-17T10:14:41.624Z,27.60
2022-10-17T10:17:39.124Z,27.50
2022-10-17T10:20:37.439Z,27.40
2022-10-17T10:23:18.926Z,27.40
2022-10-17T10:26:01.810Z,27.40
2022-10-17T10:28:35.066Z,27.30
2022-10-17T10:31:10.783Z,27.20
2022-10-17T10:33:49.462Z,27.20
2022-10-17T10:36:24.605Z,27.10
2022-10-17T10:39:02.382Z,27.10
2022-10-17T10:41:49.213Z,27.00
2022-10-17T10:44:23.340Z,27.00
2022-10-17T10:47:09.971Z,26.90
2022-10-17T10:49:41.292Z,26.80
2022-10-17T10:52:20.188Z,26.80
2022-10-17T10:54:59.951Z,26.70
2022-10-17T10:57:35.339Z,26.60
2022-10-17T11:00:23.168Z,26.50
2022-10-17T11:03:06.192Z,26.50
2022-10-17T11:06:00.085Z,26.40
2022-10-17T11:08:52.594Z,26.30
2022-10-17T11:11:35.829Z,26.30
2022-10-17T11:14:39.609Z,26.20
2022-10-17T11:17:39.322Z,26.10
2022-10-17T11:20:34.871Z,26.00
2022-10-17T11:23:35.454Z,25.90
2022-10-17T11:26:10.717Z,25.80
2022-10-17T11:28:40.281Z,25.80
2022-10-17T11:31:16.452Z,25.70
2022-10-17T11:34:09.007Z,25.70
2022-10-17T11:36:43.489Z,25.60
2022-10-17T11:39:19.082Z,25.50
2022-10-17T11:42:08.876Z,25.50
2022-10-17T11:44:44.570Z,25.40
2022-10-17T11:47:41.541Z,25.40
2022-10-17T11:53:31.945Z,25.20
2022-10-17T11:56:03.190Z,25.10
2022-10-17T11:58:47.758Z,25.10
2022-10-17T12:01:41.225Z,25.10
2022-10-17T12:04:46.280Z,25.00
2022-10-17T12:07:47.733Z,24.90
2022-10-17T12:10:47.709Z,24.90
2022-10-17T12:13:53.609Z,24.80
2022-10-17T12:16:44.937Z,24.70
2022-10-17T12:19:25.112Z,24.70
2022-10-17T12:22:07.841Z,24.60
2022-10-17T12:24:46.077Z,24.60
2022-10-17T12:27:37.147Z,24.60
2022-10-17T12:30:26.137Z,24.50
2022-10-17T12:33:16.359Z,24.50
2022-10-17T12:35:45.874Z,24.50
2022-10-17T12:38:27.974Z,24.40
2022-10-17T12:40:59.414Z,24.40
2022-10-17T12:43:44.044Z,24.30
2022-10-17T12:46:14.876Z,24.30
2022-10-17T12:49:10.942Z,24.20
2022-10-17T12:52:19.566Z,24.20
2022-10-17T12:55:19.313Z,24.10
2022-10-17T12:58:04.817Z,24.20
2022-10-17T13:01:23.078Z,24.10
2022-10-17T13:03:51.388Z,24.00
2022-10-17T13:06:32.275Z,24.00
2022-10-17T13:09:05.589Z,24.00
2022-10-17T13:11:38.364Z,23.90
2022-10-17T13:14:15.451Z,23.90
2022-10-17T13:17:01.587Z,23.80
2022-10-17T13:19:41.456Z,23.70
2022-10-17T13:22:33.589Z,23.70
2022-10-17T13:25:17.899Z,23.60
2022-10-17T13:27:48.891Z,23.60
2022-10-17T13:30:38.996Z,23.50
2022-10-17T13:33:31.632Z,23.50
2022-10-17T13:36:02.825Z,23.50
2022-10-17T13:38:36.775Z,23.40
2022-10-17T13:41:35.854Z,23.40
2022-10-17T13:44:12.871Z,23.40
2022-10-17T13:46:43.538Z,23.30
2022-10-17T13:49:28.140Z,23.30
2022-10-17T13:52:00.044Z,23.30
2022-10-17T13:54:43.739Z,23.30
2022-10-17T13:57:33.920Z,23.30
2022-10-17T14:00:13.697Z,23.30
2022-10-17T14:02:43.998Z,23.20
2022-10-17T14:05:19.309Z,23.20
2022-10-17T14:08:21.898Z,23.20
2022-10-17T14:10:50.687Z,23.10
2022-10-17T14:13:29.792Z,23.10
2022-10-17T14:16:03.690Z,23.10
2022-10-17T14:18:37.432Z,23.00
2022-10-17T14:24:31.781Z,23.00
2022-10-17T14:27:02.641Z,23.00
2022-10-17T14:29:52.885Z,22.90
2022-10-17T14:32:24.305Z,22.90
2022-10-17T14:35:17.896Z,22.90
2022-10-17T14:37:51.393Z,22.90
2022-10-17T14:40:25.099Z,22.90
2022-10-17T14:42:57.099Z,22.80
2022-10-17T14:45:31.450Z,22.80
2022-10-17T14:48:20.555Z,22.80
2022-10-17T14:51:10.716Z,22.80
2022-10-17T14:53:41.272Z,22.70
2022-10-17T14:56:36.496Z,22.70
2022-10-17T14:59:11.783Z,22.70
2022-10-17T15:01:42.061Z,22.60
2022-10-17T15:04:12.491Z,22.60
2022-10-17T15:06:42.281Z,22.60
2022-10-17T15:09:13.886Z,22.60
2022-10-17T15:11:43.400Z,22.50
2022-10-17T15:14:12.872Z,22.60
2022-10-17T15:16:43.508Z,22.50
2022-10-17T15:19:15.639Z,22.50
2022-10-17T15:21:47.281Z,22.50
2022-10-17T15:24:17.510Z,22.40
2022-10-17T15:26:47.370Z,22.40
2022-10-17T15:29:18.258Z,22.40
2022-10-17T15:31:48.066Z,22.30
2022-10-17T15:34:17.899Z,22.30
2022-10-17T15:36:53.364Z,22.30
2022-10-17T15:39:23.126Z,22.30
2022-10-17T15:41:53.024Z,22.30
2022-10-17T15:44:22.818Z,22.30
2022-10-17T15:46:53.245Z,22.30
2022-10-17T15:49:23.055Z,22.30
2022-10-17T15:51:54.425Z,22.20
2022-10-17T15:54:25.224Z,22.20
2022-10-17T15:56:57.012Z,22.20
2022-10-17T15:59:33.479Z,22.20
2022-10-17T16:02:03.558Z,22.20
2022-10-17T16:04:33.397Z,22.20
2022-10-17T16:07:03.211Z,22.20
2022-10-17T16:09:33.042Z,22.20
2022-10-17T16:12:03.936Z,22.10
2022-10-17T16:14:34.789Z,22.10
2022-10-17T16:17:05.553Z,22.10
2022-10-17T16:19:35.420Z,22.10
2022-10-17T16:22:06.087Z,22.00
2022-10-17T16:24:36.067Z,22.00
2022-10-17T16:27:05.947Z,22.00
2022-10-17T16:29:38.725Z,22.00
2022-10-17T16:32:08.696Z,22.00
2022-10-17T16:34:38.575Z,22.00
2022-10-17T16:37:08.976Z,22.00
2022-10-17T16:39:38.740Z,21.90
2022-10-17T16:42:08.711Z,21.90
2022-10-17T16:44:38.582Z,21.90
2022-10-17T16:47:08.446Z,21.80
2022-10-17T16:49:41.667Z,21.80
2022-10-17T16:52:14.662Z,21.80
2022-10-17T16:54:44.456Z,21.80
2022-10-17T16:57:14.349Z,21.80
2022-10-17T16:59:44.140Z,21.80
2022-10-17T17:02:17.523Z,21.70
2022-10-17T17:04:50.445Z,21.70
2022-10-17T17:07:21.452Z,21.70
2022-10-17T17:09:51.374Z,21.70
2022-10-17T17:12:21.180Z,21.70
2022-10-17T17:14:51.092Z,21.70
2022-10-17T17:17:36.973Z,21.70
2022-10-17T17:20:11.179Z,21.70
2022-10-17T17:22:40.642Z,21.60
2022-10-17T17:25:10.580Z,21.60
2022-10-17T17:27:40.051Z,21.60
2022-10-17T17:30:10.101Z,21.50
2022-10-17T17:32:39.644Z,21.50
2022-10-17T17:35:09.575Z,21.50
2022-10-17T17:37:39.232Z,21.50
2022-10-17T17:40:09.336Z,21.50
2022-10-17T17:42:38.874Z,21.40
2022-10-17T17:45:08.776Z,21.40
2022-10-17T17:47:38.320Z,21.40
2022-10-17T17:50:08.225Z,21.40
2022-10-17T17:52:37.782Z,21.40
2022-10-17T17:55:07.752Z,21.40
2022-10-17T17:57:37.211Z,21.40
2022-10-17T18:00:07.722Z,21.40
2022-10-17T18:02:40.725Z,21.40
2022-10-17T18:05:13.126Z,21.40
2022-10-17T18:07:42.724Z,21.40
2022-10-17T18:12:45.318Z,21.30
2022-10-17T18:15:21.683Z,21.30
2022-10-17T18:17:52.146Z,21.30
2022-10-17T18:20:21.802Z,21.30
2022-10-17T18:22:51.319Z,21.30
2022-10-17T18:25:20.856Z,21.30
2022-10-17T18:27:50.542Z,21.30
2022-10-17T18:30:21.218Z,21.30
2022-10-17T18:32:53.643Z,21.20
2022-10-17T18:35:23.638Z,21.20
2022-10-17T18:37:53.242Z,21.20
2022-10-17T18:40:22.732Z,21.10
2022-10-17T18:42:52.307Z,21.20
2022-10-17T18:45:21.955Z,21.10
2022-10-17T18:47:54.229Z,21.10
2022-10-17T18:50:25.629Z,21.10
2022-10-17T18:52:55.244Z,21.10
2022-10-17T18:55:24.808Z,21.10
2022-10-17T18:57:54.763Z,21.10
2022-10-17T19:00:24.254Z,21.10
2022-10-17T19:02:53.760Z,21.00
2022-10-17T19:05:23.373Z,21.00
2022-10-17T19:07:52.919Z,21.10
2022-10-17T19:10:22.563Z,21.00
2022-10-17T19:12:52.096Z,21.00
2022-10-17T19:15:23.819Z,21.00
2022-10-17T19:17:56.624Z,21.00
2022-10-17T19:20:26.224Z,21.00
2022-10-17T19:22:55.899Z,21.00
2022-10-17T19:25:25.425Z,21.00
2022-10-17T19:27:55.083Z,21.00
2022-10-17T19:30:24.576Z,20.90
2022-10-17T19:32:54.141Z,20.90
2022-10-17T19:35:23.643Z,20.90
2022-10-17T19:37:53.425Z,20.90
2022-10-17T19:40:22.942Z,20.90
2022-10-17T19:42:52.419Z,20.80
2022-10-17T19:45:21.916Z,20.80
2022-10-17T19:47:51.591Z,20.70
2022-10-17T19:50:21.076Z,20.70
2022-10-17T19:52:53.038Z,20.80
2022-10-17T19:55:22.562Z,20.70
2022-10-17T19:57:52.139Z,20.70
2022-10-17T20:00:21.733Z,20.70
2022-10-17T20:02:51.236Z,20.70
2022-10-17T20:05:23.571Z,20.70
2022-10-17T20:07:55.595Z,20.70
2022-10-17T20:10:25.249Z,20.70
2022-10-17T20:12:54.772Z,20.70
2022-10-17T20:15:24.427Z,20.70
2022-10-17T20:17:54.409Z,20.70
2022-10-17T20:20:24.507Z,20.70
2022-10-17T20:22:54.031Z,20.70
2022-10-17T20:25:23.861Z,20.70
2022-10-17T20:27:53.597Z,20.70
2022-10-17T20:30:23.144Z,20.70
2022-10-17T20:32:55.129Z,20.60
2022-10-17T20:35:25.441Z,20.70
2022-10-17T20:37:55.133Z,20.60
2022-10-17T20:40:39.697Z,20.60
2022-10-17T20:43:12.487Z,20.60
2022-10-17T20:45:51.153Z,20.60
2022-10-17T20:48:21.487Z,20.60
2022-10-17T20:50:51.748Z,20.60
2022-10-17T20:53:36.554Z,20.60
2022-10-17T20:56:27.212Z,20.60
2022-10-17T20:59:01.530Z,20.50
2022-10-17T21:01:33.052Z,20.50
2022-10-17T21:04:27.104Z,20.50
2022-10-17T21:06:55.986Z,20.50
2022-10-17T21:09:25.893Z,20.40
2022-10-17T21:11:57.224Z,20.40
2022-10-17T21:14:27.668Z,20.40
2022-10-17T21:16:58.929Z,20.40
2022-10-17T21:19:32.571Z,20.40
2022-10-17T21:22:02.767Z,20.40
2022-10-17T21:24:33.291Z,20.40
2022-10-17T21:27:02.848Z,20.40
2022-10-17T21:29:32.335Z,20.40
2022-10-17T21:32:01.824Z,20.40
2022-10-17T21:34:31.361Z,20.40
2022-10-17T21:37:00.911Z,20.40
2022-10-17T21:39:30.527Z,20.30
2022-10-17T21:42:00.171Z,20.30
2022-10-17T21:44:30.042Z,20.30
2022-10-17T21:46:59.558Z,20.30
2022-10-17T21:49:29.331Z,20.20
2022-10-17T21:51:59.537Z,20.20
2022-10-17T21:54:29.042Z,20.20
2022-10-17T21:57:01.457Z,20.10
2022-10-17T21:59:33.126Z,20.10
2022-10-17T22:02:02.747Z,20.10
2022-10-17T22:04:32.270Z,20.20
2022-10-17T22:07:01.761Z,20.10
2022-10-17T22:09:31.323Z,20.10
2022-10-17T22:12:00.945Z,20.10
2022-10-17T22:14:30.859Z,20.10
2022-10-17T22:17:03.104Z,20.10
2022-10-17T22:19:32.932Z,20.10
2022-10-17T22:22:02.981Z,20.10
2022-10-17T22:24:32.981Z,20.10
2022-10-17T22:27:03.013Z,20.00
2022-10-17T22:29:32.833Z,20.00
2022-10-17T22:32:02.708Z,20.00
2022-10-17T22:34:32.584Z,20.00
2022-10-17T22:37:02.407Z,20.00
2022-10-17T22:39:32.287Z,20.00
2022-10-17T22:42:02.101Z,20.00
2022-10-17T22:44:31.926Z,20.00
2022-10-17T22:47:01.731Z,20.00
2022-10-17T22:49:31.528Z,19.90
2022-10-17T22:52:01.399Z,19.90
2022-10-17T22:54:31.321Z,19.90
2022-10-17T22:57:01.167Z,19.90
2022-10-17T22:59:31.038Z,19.90
2022-10-17T23:02:00.991Z,19.90
2022-10-17T23:04:30.895Z,19.90
2022-10-17T23:07:00.773Z,19.90
2022-10-17T23:09:30.733Z,19.90
2022-10-17T23:12:00.605Z,19.90
2022-10-17T23:14:30.453Z,19.90
2022-10-17T23:17:00.465Z,19.80
2022-10-17T23:19:30.084Z,19.80
2022-10-17T23:21:59.664Z,19.80
2022-10-17T23:24:29.523Z,19.80
2022-10-17T23:26:59.504Z,19.80
2022-10-17T23:29:33.363Z,19.80
2022-10-17T23:32:03.136Z,19.80
2022-10-17T23:34:32.748Z,19.80
2022-10-17T23:37:02.306Z,19.80
2022-10-17T23:39:31.881Z,19.80
2022-10-17T23:42:01.407Z,19.80
2022-10-17T23:44:31.507Z,19.80
2022-10-17T23:47:01.126Z,19.80
2022-10-17T23:49:30.707Z,19.80
2022-10-17T23:52:00.318Z,19.90
2022-10-17T23:54:29.949Z,19.90
2022-10-17T23:56:59.528Z,19.90
2022-10-17T23:59:29.092Z,19.90
